Aeroporto :
LOGIN :

Iscrizione | Disclaimer

   EN    FR    IT 

 










Sommario :    VFR   VFR Marginale   IFR   IFR Intensivo   IFR Molto Intensivo
Visibilità : 
Base nubi : 
>= 8 km
>= 3000ft
5 / 8 km
1000 / 3000 ft
1500m / 5 km
500 / 1000 ft
800 / 1500m
200 / 500 ft
< 800m
< 200 ft
Simboli :   Temporali  Nebbia  Neve Forte  Precipitazioni Forti  Vento > 20 kt
SIGMETs :   Varie  Temporali  Ghiacco  Turbolenza  Onda orograficha  Ceneri Vulcaniche






- Altitudine del aeroporto : 70 ft
- Codice IATA : LMP


LICD - Lampedusa

ULTIMO METAR :
  • 252120Z AUTO 13002KT 9999 NCD 20/18 Q1022

METARs OBSOLETI :
  • 252050Z AUTO 10003KT 9999 NCD 20/18 Q1022
  • 252020Z AUTO 11002KT 9999 NCD 20/18 Q1022
  • 251950Z AUTO 04002KT 9999 NCD 20/18 Q1022
  • 251920Z AUTO 02003KT 9999 NCD 20/18 Q1021
  • 251850Z AUTO 03005KT 9999 FEW010/// SCT190/// BKN240/// 21/18 Q1021

TAF TAF LICD
Valido dal 25 a 18 ore il 26 a 18 ore UTC


251700Z 2518/2618 06010KT CAVOK
BECMG 2520/2522 35010KT



MetMap, La meteo Aeronautica in un colpo d'occhio ! - Copyright ORBIFLY Dicembre 2007 - Disclaimer

ORBIFLY MET'MAP TEAM :

Programmazione e sviluppo : Alexandra Zaïnal
Concezione : Baudouin d'Aumeries
Aiuto per la programmazione : Marc-Olivier Méhu
Supporto tecnico e logistico : Manuel Goepfert
Aiuto per la traduzione : Arnaldo La Scala

Contatto : metmap@orbifly.com




FONTI E CREDITI :

   NOAA